sensor_id;sensor_type;location;lat;lon;timestamp;temperature;humidity
26505;DHT22;19493;48.042;7.584;2022-10-17T00:01:52;12.80;99.90
26505;DHT22;19493;48.042;7.584;2022-10-17T00:04:17;12.70;99.90
26505;DHT22;19493;48.042;7.584;2022-10-17T00:06:43;12.70;99.90
26505;DHT22;19493;48.042;7.584;2022-10-17T00:09:09;12.70;99.90
26505;DHT22;19493;48.042;7.584;2022-10-17T00:11:34;12.80;99.90
26505;DHT22;19493;48.042;7.584;2022-10-17T00:14:00;12.70;99.90
26505;DHT22;19493;48.042;7.584;2022-10-17T00:16:34;12.80;99.90
26505;DHT22;19493;48.042;7.584;2022-10-17T00:19:03;12.80;99.90
26505;DHT22;19493;48.042;7.584;2022-10-17T00:21:29;12.90;99.90
26505;DHT22;19493;48.042;7.584;2022-10-17T00:23:55;12.90;99.90
26505;DHT22;19493;48.042;7.584;2022-10-17T00:26:21;12.80;99.90
26505;DHT22;19493;48.042;7.584;2022-10-17T00:28:48;12.80;99.90
26505;DHT22;19493;48.042;7.584;2022-10-17T00:31:16;12.80;99.90
26505;DHT22;19493;48.042;7.584;2022-10-17T00:33:43;12.80;99.90
26505;DHT22;19493;48.042;7.584;2022-10-17T00:36:12;12.80;99.90
26505;DHT22;19493;48.042;7.584;2022-10-17T00:38:40;12.70;99.90
26505;DHT22;19493;48.042;7.584;2022-10-17T00:41:07;12.70;99.90
26505;DHT22;19493;48.042;7.584;2022-10-17T00:46:16;12.70;99.90
26505;DHT22;19493;48.042;7.584;2022-10-17T00:48:43;12.70;99.90
26505;DHT22;19493;48.042;7.584;2022-10-17T00:51:09;12.70;99.90
26505;DHT22;19493;48.042;7.584;2022-10-17T00:53:36;12.70;99.90
26505;DHT22;19493;48.042;7.584;2022-10-17T00:56:03;12.60;99.90
26505;DHT22;19493;48.042;7.584;2022-10-17T00:58:29;12.50;99.90
26505;DHT22;19493;48.042;7.584;2022-10-17T01:00:55;12.50;99.90
26505;DHT22;19493;48.042;7.584;2022-10-17T01:03:20;12.40;99.90
26505;DHT22;19493;48.042;7.584;2022-10-17T01:05:46;12.40;99.90
26505;DHT22;19493;48.042;7.584;2022-10-17T01:08:12;12.30;99.90
26505;DHT22;19493;48.042;7.584;2022-10-17T01:14:02;12.20;99.90
26505;DHT22;19493;48.042;7.584;2022-10-17T01:22:25;12.30;99.90
26505;DHT22;19493;48.042;7.584;2022-10-17T01:27:44;12.20;99.90
26505;DHT22;19493;48.042;7.584;2022-10-17T01:33:18;12.20;99.90
26505;DHT22;19493;48.042;7.584;2022-10-17T01:36:00;12.20;99.90
26505;DHT22;19493;48.042;7.584;2022-10-17T01:38:34;12.20;99.90
26505;DHT22;19493;48.042;7.584;2022-10-17T01:41:05;12.20;99.90
26505;DHT22;19493;48.042;7.584;2022-10-17T01:44:09;12.20;99.90
26505;DHT22;19493;48.042;7.584;2022-10-17T01:46:38;12.10;99.90
26505;DHT22;19493;48.042;7.584;2022-10-17T01:49:06;12.10;99.90
26505;DHT22;19493;48.042;7.584;2022-10-17T01:51:46;12.10;99.90
26505;DHT22;19493;48.042;7.584;2022-10-17T01:54:26;12.00;99.90
26505;DHT22;19493;48.042;7.584;2022-10-17T01:56:58;12.00;99.90
26505;DHT22;19493;48.042;7.584;2022-10-17T01:59:40;12.00;99.90
26505;DHT22;19493;48.042;7.584;2022-10-17T02:02:07;11.90;99.90
26505;DHT22;19493;48.042;7.584;2022-10-17T02:04:34;12.00;99.90
26505;DHT22;19493;48.042;7.584;2022-10-17T02:07:11;12.00;99.90
26505;DHT22;19493;48.042;7.584;2022-10-17T02:09:37;12.00;99.90
26505;DHT22;19493;48.042;7.584;2022-10-17T02:14:58;12.00;99.90
26505;DHT22;19493;48.042;7.584;2022-10-17T02:17:43;12.00;99.90
26505;DHT22;19493;48.042;7.584;2022-10-17T02:28:47;11.80;99.90
26505;DHT22;19493;48.042;7.584;2022-10-17T02:31:23;11.80;99.90
26505;DHT22;19493;48.042;7.584;2022-10-17T02:34:02;11.80;99.90
26505;DHT22;19493;48.042;7.584;2022-10-17T02:36:36;11.70;99.90
26505;DHT22;19493;48.042;7.584;2022-10-17T02:39:03;11.70;99.90
26505;DHT22;19493;48.042;7.584;2022-10-17T02:41:30;11.70;99.90
26505;DHT22;19493;48.042;7.584;2022-10-17T02:43:57;11.70;99.90
26505;DHT22;19493;48.042;7.584;2022-10-17T02:46:23;11.70;99.90
26505;DHT22;19493;48.042;7.584;2022-10-17T02:49:20;11.70;99.90
26505;DHT22;19493;48.042;7.584;2022-10-17T02:51:56;11.70;99.90
26505;DHT22;19493;48.042;7.584;2022-10-17T02:54:51;11.70;99.90
26505;DHT22;19493;48.042;7.584;2022-10-17T02:57:26;11.70;99.90
26505;DHT22;19493;48.042;7.584;2022-10-17T02:59:54;11.70;99.90
26505;DHT22;19493;48.042;7.584;2022-10-17T03:02:21;11.80;99.90
26505;DHT22;19493;48.042;7.584;2022-10-17T03:04:47;11.90;99.90
26505;DHT22;19493;48.042;7.584;2022-10-17T03:07:13;11.90;99.90
26505;DHT22;19493;48.042;7.584;2022-10-17T03:09:38;11.80;99.90
26505;DHT22;19493;48.042;7.584;2022-10-17T03:12:04;11.80;99.90
26505;DHT22;19493;48.042;7.584;2022-10-17T03:14:30;11.80;99.90
26505;DHT22;19493;48.042;7.584;2022-10-17T03:16:55;11.80;99.90
26505;DHT22;19493;48.042;7.584;2022-10-17T03:19:21;11.80;99.90
26505;DHT22;19493;48.042;7.584;2022-10-17T03:21:46;11.80;99.90
26505;DHT22;19493;48.042;7.584;2022-10-17T03:24:12;11.70;99.90
26505;DHT22;19493;48.042;7.584;2022-10-17T03:26:37;11.60;99.90
26505;DHT22;19493;48.042;7.584;2022-10-17T03:29:03;11.60;99.90
26505;DHT22;19493;48.042;7.584;2022-10-17T03:31:29;11.60;99.90
26505;DHT22;19493;48.042;7.584;2022-10-17T03:33:54;11.50;99.90
26505;DHT22;19493;48.042;7.584;2022-10-17T03:36:20;11.60;99.90
26505;DHT22;19493;48.042;7.584;2022-10-17T03:38:46;11.70;99.90
26505;DHT22;19493;48.042;7.584;2022-10-17T03:41:12;11.70;99.90
26505;DHT22;19493;48.042;7.584;2022-10-17T03:43:38;11.80;99.90
26505;DHT22;19493;48.042;7.584;2022-10-17T03:46:05;11.80;99.90
26505;DHT22;19493;48.042;7.584;2022-10-17T03:48:31;11.80;99.90
26505;DHT22;19493;48.042;7.584;2022-10-17T03:51:02;11.80;99.90
26505;DHT22;19493;48.042;7.584;2022-10-17T03:53:30;11.80;99.90
26505;DHT22;19493;48.042;7.584;2022-10-17T03:56:07;11.90;99.90
26505;DHT22;19493;48.042;7.584;2022-10-17T03:58:32;11.80;99.90
26505;DHT22;19493;48.042;7.584;2022-10-17T04:01:03;11.80;99.90
26505;DHT22;19493;48.042;7.584;2022-10-17T04:03:29;11.80;99.90
26505;DHT22;19493;48.042;7.584;2022-10-17T04:05:59;11.80;99.90
26505;DHT22;19493;48.042;7.584;2022-10-17T04:08:28;11.70;99.90
26505;DHT22;19493;48.042;7.584;2022-10-17T04:10:58;11.60;99.90
26505;DHT22;19493;48.042;7.584;2022-10-17T04:13:24;11.60;99.90
26505;DHT22;19493;48.042;7.584;2022-10-17T04:15:57;11.60;99.90
26505;DHT22;19493;48.042;7.584;2022-10-17T04:18:23;11.60;99.90
26505;DHT22;19493;48.042;7.584;2022-10-17T04:20:48;11.60;99.90
26505;DHT22;19493;48.042;7.584;2022-10-17T04:23:14;11.60;99.90
26505;DHT22;19493;48.042;7.584;2022-10-17T04:25:40;11.50;99.90
26505;DHT22;19493;48.042;7.584;2022-10-17T04:28:05;11.50;99.90
26505;DHT22;19493;48.042;7.584;2022-10-17T04:30:31;11.40;99.90
26505;DHT22;19493;48.042;7.584;2022-10-17T04:32:57;11.40;99.90
26505;DHT22;19493;48.042;7.584;2022-10-17T04:35:22;11.40;99.90
26505;DHT22;19493;48.042;7.584;2022-10-17T04:37:48;11.40;99.90
26505;DHT22;19493;48.042;7.584;2022-10-17T04:40:13;11.40;99.90
26505;DHT22;19493;48.042;7.584;2022-10-17T04:42:39;11.40;99.90
26505;DHT22;19493;48.042;7.584;2022-10-17T04:45:05;11.40;99.90
26505;DHT22;19493;48.042;7.584;2022-10-17T04:47:31;11.50;99.90
26505;DHT22;19493;48.042;7.584;2022-10-17T04:49:56;11.40;99.90
26505;DHT22;19493;48.042;7.584;2022-10-17T04:52:22;11.30;99.90
26505;DHT22;19493;48.042;7.584;2022-10-17T04:54:49;11.30;99.90
26505;DHT22;19493;48.042;7.584;2022-10-17T04:57:15;11.30;99.90
26505;DHT22;19493;48.042;7.584;2022-10-17T04:59:40;11.20;99.90
26505;DHT22;19493;48.042;7.584;2022-10-17T05:02:06;11.20;99.90
26505;DHT22;19493;48.042;7.584;2022-10-17T05:04:32;11.20;99.90
26505;DHT22;19493;48.042;7.584;2022-10-17T05:06:57;11.30;99.90
26505;DHT22;19493;48.042;7.584;2022-10-17T05:09:23;11.30;99.90
26505;DHT22;19493;48.042;7.584;2022-10-17T05:11:48;11.30;99.90
26505;DHT22;19493;48.042;7.584;2022-10-17T05:14:14;11.40;99.90
26505;DHT22;19493;48.042;7.584;2022-10-17T05:16:40;11.40;99.90
26505;DHT22;19493;48.042;7.584;2022-10-17T05:19:06;11.40;99.90
26505;DHT22;19493;48.042;7.584;2022-10-17T05:21:31;11.40;99.90
26505;DHT22;19493;48.042;7.584;2022-10-17T05:23:57;11.40;99.90
26505;DHT22;19493;48.042;7.584;2022-10-17T05:26:24;11.40;99.90
26505;DHT22;19493;48.042;7.584;2022-10-17T05:28:50;11.30;99.90
26505;DHT22;19493;48.042;7.584;2022-10-17T05:31:16;11.30;99.90
26505;DHT22;19493;48.042;7.584;2022-10-17T05:33:42;11.20;99.90
26505;DHT22;19493;48.042;7.584;2022-10-17T05:36:08;11.20;99.90
26505;DHT22;19493;48.042;7.584;2022-10-17T05:38:34;11.10;99.90
26505;DHT22;19493;48.042;7.584;2022-10-17T05:41:02;11.10;99.90
26505;DHT22;19493;48.042;7.584;2022-10-17T05:43:28;11.00;99.90
26505;DHT22;19493;48.042;7.584;2022-10-17T05:45:54;11.00;99.90
26505;DHT22;19493;48.042;7.584;2022-10-17T05:48:20;11.00;99.90
26505;DHT22;19493;48.042;7.584;2022-10-17T05:50:46;10.90;99.90
26505;DHT22;19493;48.042;7.584;2022-10-17T05:53:13;10.90;99.90
26505;DHT22;19493;48.042;7.584;2022-10-17T05:55:39;10.90;99.90
26505;DHT22;19493;48.042;7.584;2022-10-17T05:58:04;10.80;99.90
26505;DHT22;19493;48.042;7.584;2022-10-17T06:00:30;10.80;99.90
26505;DHT22;19493;48.042;7.584;2022-10-17T06:02:55;10.80;99.90
26505;DHT22;19493;48.042;7.584;2022-10-17T06:05:21;10.90;99.90
26505;DHT22;19493;48.042;7.584;2022-10-17T06:07:47;11.00;99.90
26505;DHT22;19493;48.042;7.584;2022-10-17T06:10:14;11.00;99.90
26505;DHT22;19493;48.042;7.584;2022-10-17T06:12:43;11.00;99.90
26505;DHT22;19493;48.042;7.584;2022-10-17T06:15:10;11.10;99.90
26505;DHT22;19493;48.042;7.584;2022-10-17T06:17:36;11.10;99.90
26505;DHT22;19493;48.042;7.584;2022-10-17T06:20:02;11.20;99.90
26505;DHT22;19493;48.042;7.584;2022-10-17T06:22:27;11.30;99.90
26505;DHT22;19493;48.042;7.584;2022-10-17T06:24:53;11.30;99.90
26505;DHT22;19493;48.042;7.584;2022-10-17T06:27:19;11.40;99.90
26505;DHT22;19493;48.042;7.584;2022-10-17T06:29:46;11.50;99.90
26505;DHT22;19493;48.042;7.584;2022-10-17T06:32:11;11.60;99.90
26505;DHT22;19493;48.042;7.584;2022-10-17T06:34:37;11.70;99.90
26505;DHT22;19493;48.042;7.584;2022-10-17T06:37:03;11.90;99.90
26505;DHT22;19493;48.042;7.584;2022-10-17T06:39:28;12.00;99.90
26505;DHT22;19493;48.042;7.584;2022-10-17T06:41:59;12.20;99.90
26505;DHT22;19493;48.042;7.584;2022-10-17T06:44:24;12.40;99.90
26505;DHT22;19493;48.042;7.584;2022-10-17T06:46:55;12.70;99.90
26505;DHT22;19493;48.042;7.584;2022-10-17T06:49:21;13.10;99.90
26505;DHT22;19493;48.042;7.584;2022-10-17T06:51:46;13.50;99.90
26505;DHT22;19493;48.042;7.584;2022-10-17T06:54:12;13.70;99.90
26505;DHT22;19493;48.042;7.584;2022-10-17T06:56:39;13.70;99.90
26505;DHT22;19493;48.042;7.584;2022-10-17T06:59:04;13.80;99.90
26505;DHT22;19493;48.042;7.584;2022-10-17T07:01:31;13.90;99.90
26505;DHT22;19493;48.042;7.584;2022-10-17T07:03:56;13.90;99.90
26505;DHT22;19493;48.042;7.584;2022-10-17T07:06:22;14.00;99.90
26505;DHT22;19493;48.042;7.584;2022-10-17T07:08:50;14.00;99.90
26505;DHT22;19493;48.042;7.584;2022-10-17T07:11:19;14.10;99.90
26505;DHT22;19493;48.042;7.584;2022-10-17T07:13:45;14.20;99.90
26505;DHT22;19493;48.042;7.584;2022-10-17T07:16:11;14.40;99.90
26505;DHT22;19493;48.042;7.584;2022-10-17T07:18:37;14.60;99.90
26505;DHT22;19493;48.042;7.584;2022-10-17T07:21:03;14.80;99.90
26505;DHT22;19493;48.042;7.584;2022-10-17T07:23:29;15.00;99.90
26505;DHT22;19493;48.042;7.584;2022-10-17T07:26:04;15.20;99.90
26505;DHT22;19493;48.042;7.584;2022-10-17T07:28:38;15.50;99.90
26505;DHT22;19493;48.042;7.584;2022-10-17T07:31:09;15.60;99.90
26505;DHT22;19493;48.042;7.584;2022-10-17T07:33:35;15.70;99.90
26505;DHT22;19493;48.042;7.584;2022-10-17T07:36:02;15.80;99.90
26505;DHT22;19493;48.042;7.584;2022-10-17T07:38:28;15.90;99.90
26505;DHT22;19493;48.042;7.584;2022-10-17T07:40:58;16.00;99.90
26505;DHT22;19493;48.042;7.584;2022-10-17T07:43:25;16.10;99.90
26505;DHT22;19493;48.042;7.584;2022-10-17T07:45:52;16.10;99.90
26505;DHT22;19493;48.042;7.584;2022-10-17T07:48:18;16.30;99.90
26505;DHT22;19493;48.042;7.584;2022-10-17T07:50:45;16.60;99.90
26505;DHT22;19493;48.042;7.584;2022-10-17T07:53:11;16.80;99.90
26505;DHT22;19493;48.042;7.584;2022-10-17T07:55:38;16.80;99.90
26505;DHT22;19493;48.042;7.584;2022-10-17T07:58:04;17.00;99.90
26505;DHT22;19493;48.042;7.584;2022-10-17T08:00:29;17.20;99.90
26505;DHT22;19493;48.042;7.584;2022-10-17T08:02:55;17.50;99.90
26505;DHT22;19493;48.042;7.584;2022-10-17T08:05:20;17.60;99.90
26505;DHT22;19493;48.042;7.584;2022-10-17T08:07:46;17.80;99.90
26505;DHT22;19493;48.042;7.584;2022-10-17T08:10:12;17.80;99.90
26505;DHT22;19493;48.042;7.584;2022-10-17T08:12:39;17.80;99.90
26505;DHT22;19493;48.042;7.584;2022-10-17T08:15:05;17.90;99.90
26505;DHT22;19493;48.042;7.584;2022-10-17T08:17:34;17.90;99.90
26505;DHT22;19493;48.042;7.584;2022-10-17T08:20:00;18.10;99.90
26505;DHT22;19493;48.042;7.584;2022-10-17T08:22:26;18.10;99.90
26505;DHT22;19493;48.042;7.584;2022-10-17T08:24:52;18.90;99.90
26505;DHT22;19493;48.042;7.584;2022-10-17T08:27:18;20.30;99.90
26505;DHT22;19493;48.042;7.584;2022-10-17T08:29:48;21.50;99.90
26505;DHT22;19493;48.042;7.584;2022-10-17T08:32:19;22.00;99.90
26505;DHT22;19493;48.042;7.584;2022-10-17T08:34:45;22.50;99.90
26505;DHT22;19493;48.042;7.584;2022-10-17T08:37:10;23.10;99.90
26505;DHT22;19493;48.042;7.584;2022-10-17T08:39:39;23.90;99.90
26505;DHT22;19493;48.042;7.584;2022-10-17T08:42:10;24.40;99.90
26505;DHT22;19493;48.042;7.584;2022-10-17T08:47:35;25.10;99.90
26505;DHT22;19493;48.042;7.584;2022-10-17T08:50:09;25.50;99.90
26505;DHT22;19493;48.042;7.584;2022-10-17T08:52:42;25.90;99.90
26505;DHT22;19493;48.042;7.584;2022-10-17T08:55:27;26.50;98.60
26505;DHT22;19493;48.042;7.584;2022-10-17T08:57:54;27.00;95.40
26505;DHT22;19493;48.042;7.584;2022-10-17T09:00:20;27.50;92.30
26505;DHT22;19493;48.042;7.584;2022-10-17T09:03:08;27.90;89.80
26505;DHT22;19493;48.042;7.584;2022-10-17T09:05:54;28.40;85.20
26505;DHT22;19493;48.042;7.584;2022-10-17T09:10:57;29.20;75.50
26505;DHT22;19493;48.042;7.584;2022-10-17T09:24:19;29.30;69.10
26505;DHT22;19493;48.042;7.584;2022-10-17T09:26:46;29.60;67.80
26505;DHT22;19493;48.042;7.584;2022-10-17T09:29:22;29.70;67.30
26505;DHT22;19493;48.042;7.584;2022-10-17T09:32:10;30.30;65.20
26505;DHT22;19493;48.042;7.584;2022-10-17T09:34:38;31.10;63.90
26505;DHT22;19493;48.042;7.584;2022-10-17T09:37:10;32.20;59.30
26505;DHT22;19493;48.042;7.584;2022-10-17T09:39:37;32.80;55.80
26505;DHT22;19493;48.042;7.584;2022-10-17T09:42:03;33.70;54.00
26505;DHT22;19493;48.042;7.584;2022-10-17T09:44:31;33.70;52.50
26505;DHT22;19493;48.042;7.584;2022-10-17T09:50:00;34.00;50.70
26505;DHT22;19493;48.042;7.584;2022-10-17T09:52:42;34.30;51.10
26505;DHT22;19493;48.042;7.584;2022-10-17T09:55:33;34.40;50.80
26505;DHT22;19493;48.042;7.584;2022-10-17T09:58:04;34.40;50.20
26505;DHT22;19493;48.042;7.584;2022-10-17T10:00:35;34.90;49.50
26505;DHT22;19493;48.042;7.584;2022-10-17T10:03:10;36.10;48.10
26505;DHT22;19493;48.042;7.584;2022-10-17T10:05:37;35.90;46.90
26505;DHT22;19493;48.042;7.584;2022-10-17T10:08:09;35.30;47.30
26505;DHT22;19493;48.042;7.584;2022-10-17T10:10:38;35.30;47.70
26505;DHT22;19493;48.042;7.584;2022-10-17T10:15:47;35.80;47.50
26505;DHT22;19493;48.042;7.584;2022-10-17T10:23:30;37.00;44.60
26505;DHT22;19493;48.042;7.584;2022-10-17T10:25:58;37.20;43.90
26505;DHT22;19493;48.042;7.584;2022-10-17T10:28:29;37.80;43.70
26505;DHT22;19493;48.042;7.584;2022-10-17T10:30:57;37.90;42.70
26505;DHT22;19493;48.042;7.584;2022-10-17T10:33:26;37.30;43.10
26505;DHT22;19493;48.042;7.584;2022-10-17T10:35:58;37.50;43.60
26505;DHT22;19493;48.042;7.584;2022-10-17T10:38:26;37.80;42.10
26505;DHT22;19493;48.042;7.584;2022-10-17T10:40:55;37.80;41.50
26505;DHT22;19493;48.042;7.584;2022-10-17T10:43:42;38.60;42.00
26505;DHT22;19493;48.042;7.584;2022-10-17T10:46:20;39.10;40.10
26505;DHT22;19493;48.042;7.584;2022-10-17T10:51:31;40.00;39.40
26505;DHT22;19493;48.042;7.584;2022-10-17T10:54:07;40.70;38.10
26505;DHT22;19493;48.042;7.584;2022-10-17T10:56:52;40.40;36.70
26505;DHT22;19493;48.042;7.584;2022-10-17T11:02:19;40.70;37.30
26505;DHT22;19493;48.042;7.584;2022-10-17T11:07:42;42.00;35.30
26505;DHT22;19493;48.042;7.584;2022-10-17T11:10:34;42.40;34.50
26505;DHT22;19493;48.042;7.584;2022-10-17T11:15:57;43.00;33.60
26505;DHT22;19493;48.042;7.584;2022-10-17T11:18:32;43.20;33.60
26505;DHT22;19493;48.042;7.584;2022-10-17T11:21:05;43.80;31.40
26505;DHT22;19493;48.042;7.584;2022-10-17T11:23:41;44.00;31.00
26505;DHT22;19493;48.042;7.584;2022-10-17T11:26:12;42.70;29.10
26505;DHT22;19493;48.042;7.584;2022-10-17T11:28:40;41.40;29.00
26505;DHT22;19493;48.042;7.584;2022-10-17T11:31:12;41.00;29.20
26505;DHT22;19493;48.042;7.584;2022-10-17T11:36:46;39.80;30.10
26505;DHT22;19493;48.042;7.584;2022-10-17T11:39:50;39.10;30.50
26505;DHT22;19493;48.042;7.584;2022-10-17T11:42:13;39.50;31.10
26505;DHT22;19493;48.042;7.584;2022-10-17T11:44:40;39.90;30.50
26505;DHT22;19493;48.042;7.584;2022-10-17T11:47:41;40.50;30.40
26505;DHT22;19493;48.042;7.584;2022-10-17T11:50:15;40.30;29.30
26505;DHT22;19493;48.042;7.584;2022-10-17T11:53:00;39.90;29.20
26505;DHT22;19493;48.042;7.584;2022-10-17T11:55:28;38.80;31.00
26505;DHT22;19493;48.042;7.584;2022-10-17T12:06:19;39.90;29.30
26505;DHT22;19493;48.042;7.584;2022-10-17T12:11:53;40.70;30.00
26505;DHT22;19493;48.042;7.584;2022-10-17T12:17:01;40.20;29.10
26505;DHT22;19493;48.042;7.584;2022-10-17T12:19:36;39.40;29.60
26505;DHT22;19493;48.042;7.584;2022-10-17T12:22:17;40.40;29.70
26505;DHT22;19493;48.042;7.584;2022-10-17T12:24:59;41.40;28.90
26505;DHT22;19493;48.042;7.584;2022-10-17T12:27:42;42.60;28.00
26505;DHT22;19493;48.042;7.584;2022-10-17T12:30:24;42.80;26.90
26505;DHT22;19493;48.042;7.584;2022-10-17T12:33:03;42.30;26.50
26505;DHT22;19493;48.042;7.584;2022-10-17T12:35:32;42.30;26.60
26505;DHT22;19493;48.042;7.584;2022-10-17T12:38:01;42.30;27.10
26505;DHT22;19493;48.042;7.584;2022-10-17T12:51:07;39.80;28.80
26505;DHT22;19493;48.042;7.584;2022-10-17T12:56:29;39.50;29.30
26505;DHT22;19493;48.042;7.584;2022-10-17T12:58:57;38.30;29.80
26505;DHT22;19493;48.042;7.584;2022-10-17T13:01:33;37.70;30.70
26505;DHT22;19493;48.042;7.584;2022-10-17T13:04:01;36.80;32.00
26505;DHT22;19493;48.042;7.584;2022-10-17T13:06:31;37.00;32.40
26505;DHT22;19493;48.042;7.584;2022-10-17T13:09:12;36.40;32.20
26505;DHT22;19493;48.042;7.584;2022-10-17T13:11:39;35.70;33.60
26505;DHT22;19493;48.042;7.584;2022-10-17T13:14:12;35.70;33.80
26505;DHT22;19493;48.042;7.584;2022-10-17T13:19:13;32.80;36.60
26505;DHT22;19493;48.042;7.584;2022-10-17T13:22:10;30.50;40.70
26505;DHT22;19493;48.042;7.584;2022-10-17T13:24:38;29.10;43.60
26505;DHT22;19493;48.042;7.584;2022-10-17T13:27:19;28.20;45.50
26505;DHT22;19493;48.042;7.584;2022-10-17T13:29:45;27.90;46.50
26505;DHT22;19493;48.042;7.584;2022-10-17T13:32:11;27.70;46.50
26505;DHT22;19493;48.042;7.584;2022-10-17T13:34:37;27.60;47.20
26505;DHT22;19493;48.042;7.584;2022-10-17T13:37:09;27.40;47.50
26505;DHT22;19493;48.042;7.584;2022-10-17T13:39:38;27.10;48.40
26505;DHT22;19493;48.042;7.584;2022-10-17T13:42:05;26.90;48.80
26505;DHT22;19493;48.042;7.584;2022-10-17T13:44:33;26.80;49.00
26505;DHT22;19493;48.042;7.584;2022-10-17T13:46:59;26.60;49.40
26505;DHT22;19493;48.042;7.584;2022-10-17T13:49:32;26.60;49.50
26505;DHT22;19493;48.042;7.584;2022-10-17T13:51:59;26.50;49.50
26505;DHT22;19493;48.042;7.584;2022-10-17T13:56:59;26.40;50.00
26505;DHT22;19493;48.042;7.584;2022-10-17T13:59:39;26.50;50.00
26505;DHT22;19493;48.042;7.584;2022-10-17T14:02:11;26.50;50.40
26505;DHT22;19493;48.042;7.584;2022-10-17T14:04:38;26.50;50.30
26505;DHT22;19493;48.042;7.584;2022-10-17T14:07:05;26.50;50.30
26505;DHT22;19493;48.042;7.584;2022-10-17T14:09:32;26.40;50.40
26505;DHT22;19493;48.042;7.584;2022-10-17T14:12:10;26.20;51.20
26505;DHT22;19493;48.042;7.584;2022-10-17T14:14:38;26.20;51.50
26505;DHT22;19493;48.042;7.584;2022-10-17T14:17:24;26.20;51.80
26505;DHT22;19493;48.042;7.584;2022-10-17T14:19:59;26.10;51.10
26505;DHT22;19493;48.042;7.584;2022-10-17T14:22:28;26.00;51.80
26505;DHT22;19493;48.042;7.584;2022-10-17T14:24:55;25.90;51.80
26505;DHT22;19493;48.042;7.584;2022-10-17T14:30:00;25.80;52.30
26505;DHT22;19493;48.042;7.584;2022-10-17T14:32:29;25.70;52.40
26505;DHT22;19493;48.042;7.584;2022-10-17T14:34:56;25.70;52.80
26505;DHT22;19493;48.042;7.584;2022-10-17T14:37:42;25.70;52.90
26505;DHT22;19493;48.042;7.584;2022-10-17T14:40:17;25.70;53.10
26505;DHT22;19493;48.042;7.584;2022-10-17T14:42:44;25.60;53.10
26505;DHT22;19493;48.042;7.584;2022-10-17T14:47:52;25.50;53.20
26505;DHT22;19493;48.042;7.584;2022-10-17T14:50:27;25.50;53.30
26505;DHT22;19493;48.042;7.584;2022-10-17T14:53:06;25.50;53.30
26505;DHT22;19493;48.042;7.584;2022-10-17T14:56:01;25.40;53.50
26505;DHT22;19493;48.042;7.584;2022-10-17T14:58:29;25.40;54.40
26505;DHT22;19493;48.042;7.584;2022-10-17T15:00:55;25.40;54.30
26505;DHT22;19493;48.042;7.584;2022-10-17T15:03:22;25.30;54.60
26505;DHT22;19493;48.042;7.584;2022-10-17T15:05:49;25.20;55.00
26505;DHT22;19493;48.042;7.584;2022-10-17T15:08:17;25.10;55.30
26505;DHT22;19493;48.042;7.584;2022-10-17T15:10:43;25.10;55.50
26505;DHT22;19493;48.042;7.584;2022-10-17T15:13:10;24.90;55.40
26505;DHT22;19493;48.042;7.584;2022-10-17T15:15:37;24.90;56.20
26505;DHT22;19493;48.042;7.584;2022-10-17T15:18:04;24.80;56.20
26505;DHT22;19493;48.042;7.584;2022-10-17T15:20:30;24.70;56.30
26505;DHT22;19493;48.042;7.584;2022-10-17T15:22:57;24.70;57.00
26505;DHT22;19493;48.042;7.584;2022-10-17T15:25:24;24.60;57.00
26505;DHT22;19493;48.042;7.584;2022-10-17T15:27:51;24.50;57.40
26505;DHT22;19493;48.042;7.584;2022-10-17T15:30:22;24.40;58.10
26505;DHT22;19493;48.042;7.584;2022-10-17T15:32:49;24.30;58.30
26505;DHT22;19493;48.042;7.584;2022-10-17T15:35:16;24.20;59.00
26505;DHT22;19493;48.042;7.584;2022-10-17T15:37:42;24.10;59.00
26505;DHT22;19493;48.042;7.584;2022-10-17T15:40:15;24.00;59.40
26505;DHT22;19493;48.042;7.584;2022-10-17T15:42:41;24.00;60.10
26505;DHT22;19493;48.042;7.584;2022-10-17T15:45:09;23.90;60.10
26505;DHT22;19493;48.042;7.584;2022-10-17T15:47:35;23.80;60.80
26505;DHT22;19493;48.042;7.584;2022-10-17T15:50:02;23.70;61.30
26505;DHT22;19493;48.042;7.584;2022-10-17T15:52:28;23.50;62.10
26505;DHT22;19493;48.042;7.584;2022-10-17T15:54:54;23.40;62.60
26505;DHT22;19493;48.042;7.584;2022-10-17T15:57:28;23.40;63.60
26505;DHT22;19493;48.042;7.584;2022-10-17T15:59:54;23.30;63.90
26505;DHT22;19493;48.042;7.584;2022-10-17T16:02:22;23.20;65.00
26505;DHT22;19493;48.042;7.584;2022-10-17T16:04:49;23.10;65.50
26505;DHT22;19493;48.042;7.584;2022-10-17T16:07:17;23.10;66.30
26505;DHT22;19493;48.042;7.584;2022-10-17T16:09:44;23.00;67.30
26505;DHT22;19493;48.042;7.584;2022-10-17T16:12:15;22.90;68.10
26505;DHT22;19493;48.042;7.584;2022-10-17T16:14:41;22.80;69.00
26505;DHT22;19493;48.042;7.584;2022-10-17T16:17:13;22.70;70.20
26505;DHT22;19493;48.042;7.584;2022-10-17T16:19:39;22.60;71.30
26505;DHT22;19493;48.042;7.584;2022-10-17T16:22:04;22.50;72.30
26505;DHT22;19493;48.042;7.584;2022-10-17T16:24:31;22.40;73.50
26505;DHT22;19493;48.042;7.584;2022-10-17T16:26:56;22.30;74.30
26505;DHT22;19493;48.042;7.584;2022-10-17T16:29:22;22.20;75.70
26505;DHT22;19493;48.042;7.584;2022-10-17T16:31:47;22.20;77.10
26505;DHT22;19493;48.042;7.584;2022-10-17T16:34:14;22.10;77.90
26505;DHT22;19493;48.042;7.584;2022-10-17T16:36:40;22.10;79.40
26505;DHT22;19493;48.042;7.584;2022-10-17T16:39:06;22.00;80.70
26505;DHT22;19493;48.042;7.584;2022-10-17T16:41:34;21.90;82.00
26505;DHT22;19493;48.042;7.584;2022-10-17T16:44:03;21.80;83.70
26505;DHT22;19493;48.042;7.584;2022-10-17T16:46:30;21.70;86.00
26505;DHT22;19493;48.042;7.584;2022-10-17T16:48:57;21.50;89.10
26505;DHT22;19493;48.042;7.584;2022-10-17T16:51:22;21.40;91.00
26505;DHT22;19493;48.042;7.584;2022-10-17T16:53:49;21.30;92.90
26505;DHT22;19493;48.042;7.584;2022-10-17T16:56:18;21.10;94.70
26505;DHT22;19493;48.042;7.584;2022-10-17T16:58:45;21.00;96.70
26505;DHT22;19493;48.042;7.584;2022-10-17T17:01:13;20.90;98.30
26505;DHT22;19493;48.042;7.584;2022-10-17T17:03:40;20.90;99.90
26505;DHT22;19493;48.042;7.584;2022-10-17T17:06:07;20.80;99.90
26505;DHT22;19493;48.042;7.584;2022-10-17T17:08:34;20.60;99.90
26505;DHT22;19493;48.042;7.584;2022-10-17T17:11:10;20.40;99.90
26505;DHT22;19493;48.042;7.584;2022-10-17T17:13:36;20.10;99.90
26505;DHT22;19493;48.042;7.584;2022-10-17T17:18:32;19.60;99.90
26505;DHT22;19493;48.042;7.584;2022-10-17T17:21:02;19.40;99.90
26505;DHT22;19493;48.042;7.584;2022-10-17T17:23:31;19.20;99.90
26505;DHT22;19493;48.042;7.584;2022-10-17T17:26:03;19.00;99.90
26505;DHT22;19493;48.042;7.584;2022-10-17T17:28:30;18.80;99.90
26505;DHT22;19493;48.042;7.584;2022-10-17T17:30:56;18.60;99.90
26505;DHT22;19493;48.042;7.584;2022-10-17T17:33:22;18.40;99.90
26505;DHT22;19493;48.042;7.584;2022-10-17T17:36:07;18.30;99.90